Time;durP1;ratioP1;P1;durP2;ratioP2;P2;SDS_P1;SDS_P2;PMS_P1;PMS_P2;Temp;Humidity;BMP_temperature;BMP_pressure;BME280_temperature;BME280_humidity;BME280_pressure;Samples;Min_cycle;Max_cycle;Signal;HPM_P1;HPM_P2
2022/08/05 00:00:58;;;;;;;7.38;5.35;;;18.50;99.90;;;;;;4997366;28;20046;-89
2022/08/05 00:03:23;;;;;;;5.78;5.05;;;18.50;99.90;;;;;;5001993;28;20046;-90
2022/08/05 00:05:49;;;;;;;8.13;4.93;;;18.40;99.90;;;;;;5010048;28;20061;-88
2022/08/05 00:08:14;;;;;;;8.20;5.40;;;18.40;99.90;;;;;;4993036;28;20042;-91
2022/08/05 00:10:40;;;;;;;13.90;5.90;;;18.30;99.90;;;;;;5013268;28;20486;-91
2022/08/05 00:13:06;;;;;;;11.63;6.10;;;18.30;99.90;;;;;;5015682;28;20052;-91
2022/08/05 00:15:31;;;;;;;8.52;6.15;;;18.20;99.90;;;;;;5004787;28;20045;-90
2022/08/05 00:17:57;;;;;;;9.48;6.35;;;18.20;99.90;;;;;;5037596;28;20045;-89
2022/08/05 00:20:23;;;;;;;10.20;6.20;;;18.20;99.90;;;;;;5023377;28;20051;-90
2022/08/05 00:22:49;;;;;;;11.48;6.65;;;18.30;99.90;;;;;;5018666;28;20049;-88
2022/08/05 00:25:14;;;;;;;7.82;6.45;;;18.20;99.90;;;;;;5016958;28;20441;-90
2022/08/05 00:27:40;;;;;;;10.82;6.80;;;18.20;99.90;;;;;;5019852;28;20507;-89
2022/08/05 00:30:06;;;;;;;9.30;6.25;;;18.20;99.90;;;;;;5037451;28;20129;-91
2022/08/05 00:32:32;;;;;;;10.15;5.97;;;18.20;99.90;;;;;;5039186;28;20052;-93
2022/08/05 00:34:57;;;;;;;9.38;5.88;;;18.20;99.90;;;;;;5026898;28;20045;-91
2022/08/05 00:37:23;;;;;;;8.98;5.57;;;18.10;99.90;;;;;;5038938;28;20056;-92
2022/08/05 00:39:49;;;;;;;8.60;5.40;;;18.00;99.90;;;;;;5039889;28;20037;-90
2022/08/05 00:42:15;;;;;;;7.18;5.50;;;18.00;99.90;;;;;;5023642;28;20072;-92
2022/08/05 00:44:42;;;;;;;10.43;5.10;;;18.00;99.90;;;;;;5035393;28;20060;-91
2022/08/05 00:47:07;;;;;;;9.27;5.38;;;18.00;99.90;;;;;;5033397;28;20072;-90
2022/08/05 00:49:33;;;;;;;9.73;5.63;;;18.10;99.90;;;;;;5034849;28;20037;-91
2022/08/05 00:51:59;;;;;;;8.52;5.38;;;18.10;99.90;;;;;;5035814;28;20045;-92
2022/08/05 00:54:24;;;;;;;8.45;4.72;;;18.10;99.90;;;;;;5036180;28;20132;-93
2022/08/05 00:56:50;;;;;;;7.72;4.93;;;18.10;99.90;;;;;;5017222;28;20049;-95
2022/08/05 00:59:16;;;;;;;8.50;5.45;;;18.10;99.90;;;;;;5016717;28;20037;-93
2022/08/05 01:01:41;;;;;;;10.35;5.03;;;18.10;99.90;;;;;;5016943;28;20042;-94
2022/08/05 01:04:07;;;;;;;7.20;4.82;;;18.10;99.90;;;;;;5016382;28;20088;-92
2022/08/05 01:06:33;;;;;;;10.13;5.00;;;18.10;99.90;;;;;;5017743;28;20064;-90
2022/08/05 01:08:59;;;;;;;8.02;4.97;;;18.10;99.90;;;;;;5000854;28;20375;-89
2022/08/05 01:11:29;;;;;;;9.20;5.00;;;18.10;99.90;;;;;;4998899;28;20117;-93
2022/08/05 01:14:03;;;;;;;8.88;4.40;;;18.10;99.90;;;;;;5016252;28;20053;-94
2022/08/05 01:16:53;;;;;;;10.95;4.85;;;18.20;99.90;;;;;;4996884;28;20052;-91
2022/08/05 01:19:22;;;;;;;9.30;4.35;;;18.20;99.90;;;;;;4997291;28;20640;-92
2022/08/05 01:22:12;;;;;;;8.13;4.57;;;18.20;99.90;;;;;;4998903;28;20050;-94
2022/08/05 01:24:44;;;;;;;7.78;3.88;;;18.20;99.90;;;;;;4997405;28;20497;-93
2022/08/05 01:27:36;;;;;;;8.98;4.70;;;18.20;99.90;;;;;;5017735;28;20086;-93
2022/08/05 01:30:02;;;;;;;4.95;3.50;;;18.20;99.90;;;;;;5002697;28;20052;-88
2022/08/05 01:32:29;;;;;;;5.78;4.18;;;18.20;99.90;;;;;;5016180;28;20053;-92
2022/08/05 01:35:30;;;;;;;6.18;3.78;;;18.20;99.90;;;;;;5016039;28;20049;-93
2022/08/05 01:37:56;;;;;;;7.80;3.70;;;18.20;99.90;;;;;;4959728;28;20054;-94
2022/08/05 01:40:25;;;;;;;5.55;3.42;;;18.20;99.90;;;;;;4991603;28;20057;-93
2022/08/05 01:42:51;;;;;;;7.22;3.40;;;18.20;99.90;;;;;;4996552;28;20041;-92
2022/08/05 01:45:16;;;;;;;4.00;3.17;;;18.20;99.90;;;;;;4998922;28;20056;-94
2022/08/05 01:47:42;;;;;;;6.72;3.67;;;18.20;99.90;;;;;;5000196;28;20045;-93
2022/08/05 01:50:22;;;;;;;6.38;3.38;;;18.20;99.90;;;;;;5032288;28;20046;-92
2022/08/05 01:52:48;;;;;;;6.88;3.28;;;18.20;99.90;;;;;;5001977;28;20095;-94
2022/08/05 01:55:14;;;;;;;6.97;3.20;;;18.20;99.90;;;;;;4982567;28;20057;-93
2022/08/05 01:57:41;;;;;;;6.70;2.92;;;18.20;99.90;;;;;;4999820;28;20045;-94
2022/08/05 02:00:10;;;;;;;5.05;2.97;;;18.20;99.90;;;;;;4999197;28;20045;-93
2022/08/05 02:02:37;;;;;;;4.05;2.90;;;18.10;99.90;;;;;;5032327;28;20497;-93
2022/08/05 02:05:05;;;;;;;7.03;3.10;;;18.20;99.90;;;;;;4968869;28;20102;-94
2022/08/05 02:07:31;;;;;;;6.80;2.88;;;18.20;99.90;;;;;;4963160;28;20046;-93
2022/08/05 02:09:57;;;;;;;6.00;2.75;;;18.20;99.90;;;;;;4999902;28;20412;-93
2022/08/05 02:12:43;;;;;;;6.40;2.70;;;18.20;99.90;;;;;;4998756;28;20470;-94
2022/08/05 02:15:12;;;;;;;8.25;3.20;;;18.20;99.90;;;;;;4966758;28;20064;-93
2022/08/05 02:17:47;;;;;;;5.45;3.35;;;18.30;99.90;;;;;;4983262;28;20071;-92
2022/08/05 02:20:16;;;;;;;8.05;2.85;;;18.30;99.90;;;;;;4982562;28;20520;-89
2022/08/05 02:22:42;;;;;;;4.07;2.85;;;18.20;99.90;;;;;;4983630;28;20052;-91
2022/08/05 02:25:13;;;;;;;6.18;2.78;;;18.20;99.90;;;;;;4982473;28;20075;-92
2022/08/05 02:27:39;;;;;;;5.20;3.15;;;18.20;99.90;;;;;;4982566;28;20065;-92
2022/08/05 02:30:06;;;;;;;6.25;2.95;;;18.20;99.90;;;;;;4998819;28;20501;-94
2022/08/05 02:32:31;;;;;;;8.02;3.08;;;18.20;99.90;;;;;;4998266;28;20103;-91
2022/08/05 02:35:02;;;;;;;4.47;2.97;;;18.20;99.90;;;;;;4999069;28;20132;-93
2022/08/05 02:37:27;;;;;;;7.25;3.17;;;18.20;99.90;;;;;;4998158;28;20104;-92
2022/08/05 02:39:53;;;;;;;4.82;2.88;;;18.20;99.90;;;;;;4998747;28;20496;-92
2022/08/05 02:42:19;;;;;;;6.22;3.25;;;18.20;99.90;;;;;;5015139;28;20037;-94
2022/08/05 02:44:44;;;;;;;6.50;3.30;;;18.20;99.90;;;;;;4999384;28;20049;-91
2022/08/05 02:47:10;;;;;;;9.52;3.00;;;18.20;99.90;;;;;;4998635;28;20081;-88
2022/08/05 02:49:37;;;;;;;5.05;3.00;;;18.10;99.90;;;;;;4998124;28;20085;-91
2022/08/05 02:52:05;;;;;;;5.18;2.65;;;18.20;99.90;;;;;;4998944;28;20083;-93
2022/08/05 02:54:32;;;;;;;6.30;3.38;;;18.10;99.90;;;;;;4999906;28;20045;-91
2022/08/05 02:56:58;;;;;;;6.93;2.97;;;18.10;99.90;;;;;;5000160;28;20132;-91
2022/08/05 02:59:25;;;;;;;5.32;3.40;;;18.10;99.90;;;;;;4998533;28;20076;-91
2022/08/05 03:01:50;;;;;;;5.68;3.20;;;18.10;99.90;;;;;;4989355;28;20101;-92
2022/08/05 03:04:17;;;;;;;4.03;2.70;;;18.10;99.90;;;;;;4996231;28;20054;-89
2022/08/05 03:06:42;;;;;;;5.93;2.80;;;18.10;99.90;;;;;;5017454;28;20042;-90
2022/08/05 03:09:11;;;;;;;3.90;2.90;;;18.10;99.90;;;;;;5032900;28;20071;-92
2022/08/05 03:11:36;;;;;;;4.50;2.80;;;18.10;99.90;;;;;;5020740;28;20127;-92
2022/08/05 03:14:02;;;;;;;7.03;3.30;;;18.10;99.90;;;;;;5001091;28;20045;-91
2022/08/05 03:16:28;;;;;;;7.53;2.92;;;18.10;99.90;;;;;;4997678;28;20050;-95
2022/08/05 03:18:53;;;;;;;6.28;3.15;;;18.00;99.90;;;;;;5030663;28;20041;-93
2022/08/05 03:21:19;;;;;;;7.10;3.10;;;18.00;99.90;;;;;;5030040;28;20052;-93
2022/08/05 03:23:44;;;;;;;5.72;3.65;;;18.10;99.90;;;;;;5014378;28;20049;-93
2022/08/05 03:26:10;;;;;;;4.15;3.05;;;18.00;99.90;;;;;;4998345;28;20046;-92
2022/08/05 03:28:36;;;;;;;5.07;3.10;;;18.00;99.90;;;;;;5014064;28;20045;-93
2022/08/05 03:31:02;;;;;;;6.10;3.33;;;17.90;99.90;;;;;;5014083;28;20045;-92
2022/08/05 03:33:27;;;;;;;5.55;3.30;;;17.90;99.90;;;;;;4997710;28;20049;-92
2022/08/05 03:35:57;;;;;;;6.60;3.75;;;17.90;99.90;;;;;;5030720;28;20037;-91
2022/08/05 03:38:24;;;;;;;14.48;3.30;;;17.90;99.90;;;;;;5015958;28;20041;-92
2022/08/05 03:40:51;;;;;;;4.60;3.15;;;17.90;99.90;;;;;;5013888;28;20053;-96
2022/08/05 03:43:17;;;;;;;5.72;3.28;;;17.90;99.90;;;;;;5014548;28;20049;-90
2022/08/05 03:45:42;;;;;;;6.50;3.35;;;17.90;99.90;;;;;;5030757;28;20060;-91
2022/08/05 03:48:08;;;;;;;5.65;3.42;;;17.90;99.90;;;;;;5030613;28;20085;-92
2022/08/05 03:50:55;;;;;;;7.15;3.67;;;17.90;99.90;;;;;;5031411;28;20041;-94
2022/08/05 03:53:24;;;;;;;5.07;3.92;;;17.80;99.90;;;;;;5017082;28;20049;-92
2022/08/05 03:56:04;;;;;;;8.40;3.45;;;17.80;99.90;;;;;;5034638;28;20038;-95
2022/08/05 03:58:30;;;;;;;5.18;3.28;;;17.80;99.90;;;;;;5017583;28;20084;-93
2022/08/05 04:00:56;;;;;;;5.65;3.40;;;17.80;99.90;;;;;;5017774;28;20109;-92
2022/08/05 04:03:22;;;;;;;6.50;3.30;;;17.70;99.90;;;;;;5033554;28;20077;-93
2022/08/05 04:05:48;;;;;;;4.40;3.40;;;17.70;99.90;;;;;;5018211;28;20065;-92
2022/08/05 04:08:14;;;;;;;9.07;4.50;;;17.70;99.90;;;;;;5018042;28;20041;-93
2022/08/05 04:10:39;;;;;;;8.02;3.90;;;17.70;99.90;;;;;;4999484;28;20049;-92
2022/08/05 04:13:06;;;;;;;7.20;4.28;;;17.60;99.90;;;;;;5017668;28;20045;-94
2022/08/05 04:15:32;;;;;;;5.65;4.57;;;17.60;99.90;;;;;;5016891;28;20129;-94
2022/08/05 04:17:58;;;;;;;6.75;4.38;;;17.60;99.90;;;;;;5001861;28;20081;-92
2022/08/05 04:20:24;;;;;;;6.72;4.28;;;17.70;99.90;;;;;;5000931;28;20210;-88
2022/08/05 04:22:49;;;;;;;7.13;4.53;;;17.60;99.90;;;;;;5017274;28;20128;-93
2022/08/05 04:25:15;;;;;;;7.60;4.53;;;17.60;99.90;;;;;;5017460;28;20133;-94
2022/08/05 04:27:41;;;;;;;6.20;4.30;;;17.60;99.90;;;;;;5017127;28;20046;-94
2022/08/05 04:30:07;;;;;;;6.40;4.30;;;17.60;99.90;;;;;;5017389;28;20046;-94
2022/08/05 04:32:33;;;;;;;5.90;4.60;;;17.60;99.90;;;;;;5017099;28;20071;-93
2022/08/05 04:34:58;;;;;;;7.32;4.70;;;17.60;99.90;;;;;;5016860;28;20042;-92
2022/08/05 04:37:24;;;;;;;6.57;4.55;;;17.60;99.90;;;;;;5016832;28;20045;-89
2022/08/05 04:39:49;;;;;;;9.63;5.65;;;17.60;99.90;;;;;;5033335;28;20159;-91
2022/08/05 04:42:15;;;;;;;6.05;5.13;;;17.60;99.90;;;;;;5016647;28;20050;-91
2022/08/05 04:44:41;;;;;;;10.30;4.32;;;17.60;99.90;;;;;;5032655;28;20079;-91
2022/08/05 04:47:06;;;;;;;7.43;4.63;;;17.60;99.90;;;;;;5017038;28;20049;-94
2022/08/05 04:49:32;;;;;;;9.18;4.22;;;17.60;99.90;;;;;;5033163;28;20132;-92
2022/08/05 04:51:58;;;;;;;6.20;4.55;;;17.50;99.90;;;;;;5016847;28;20533;-92
2022/08/05 04:54:25;;;;;;;7.35;4.22;;;17.60;99.90;;;;;;5032639;28;20438;-90
2022/08/05 04:56:54;;;;;;;7.03;4.50;;;17.60;99.90;;;;;;5016259;28;20042;-92
2022/08/05 04:59:21;;;;;;;7.03;4.43;;;17.60;99.90;;;;;;5016300;28;20057;-92
2022/08/05 05:01:48;;;;;;;8.52;4.80;;;17.60;99.90;;;;;;5016058;28;20111;-93
2022/08/05 05:04:13;;;;;;;8.80;4.88;;;17.60;99.90;;;;;;5032600;28;20129;-94
2022/08/05 05:06:39;;;;;;;10.60;5.00;;;17.60;99.90;;;;;;5032220;28;20128;-93
2022/08/05 05:09:05;;;;;;;6.13;4.85;;;17.50;99.90;;;;;;5016901;28;20049;-94
2022/08/05 05:11:30;;;;;;;11.65;4.80;;;17.60;99.90;;;;;;5015743;28;20050;-91
2022/08/05 05:13:56;;;;;;;5.40;4.75;;;17.60;99.90;;;;;;5000231;28;20041;-92
2022/08/05 05:16:21;;;;;;;8.88;4.72;;;17.60;99.90;;;;;;5015924;28;20048;-92
2022/08/05 05:18:47;;;;;;;9.02;4.85;;;17.70;99.90;;;;;;5032757;28;20045;-93
2022/08/05 05:21:13;;;;;;;7.43;4.65;;;17.60;99.90;;;;;;5016836;28;20041;-94
2022/08/05 05:23:38;;;;;;;6.15;4.30;;;17.70;99.90;;;;;;5015803;28;20045;-92
2022/08/05 05:26:04;;;;;;;7.85;5.10;;;17.70;99.90;;;;;;5015297;28;20441;-91
2022/08/05 05:28:30;;;;;;;5.63;4.60;;;17.70;99.90;;;;;;5031718;28;20041;-90
2022/08/05 05:30:56;;;;;;;6.22;4.40;;;17.20;99.90;;;;;;5032282;28;20049;-93
2022/08/05 05:33:21;;;;;;;6.78;4.57;;;17.70;99.90;;;;;;5015906;28;20519;-91
2022/08/05 05:35:47;;;;;;;5.80;4.20;;;17.80;99.90;;;;;;5015004;28;20048;-92
2022/08/05 05:38:13;;;;;;;8.10;4.75;;;17.80;99.90;;;;;;5031698;28;20591;-91
2022/08/05 05:40:39;;;;;;;5.18;4.65;;;17.80;99.90;;;;;;5014456;28;20045;-91
2022/08/05 05:43:05;;;;;;;6.00;4.35;;;17.90;99.90;;;;;;4999359;28;20148;-92
2022/08/05 05:45:30;;;;;;;7.85;3.78;;;17.90;99.90;;;;;;5032732;28;20136;-93
2022/08/05 05:47:59;;;;;;;7.45;4.38;;;18.00;99.90;;;;;;5031681;28;20045;-92
2022/08/05 05:50:25;;;;;;;6.82;3.58;;;18.10;99.90;;;;;;5015560;28;20053;-91
2022/08/05 05:52:51;;;;;;;6.55;4.00;;;18.10;99.90;;;;;;5015066;28;20045;-92
2022/08/05 05:55:17;;;;;;;5.85;3.90;;;18.10;99.90;;;;;;5015466;28;20048;-92
2022/08/05 05:57:43;;;;;;;5.15;3.65;;;18.10;99.90;;;;;;5016048;28;20049;-94
2022/08/05 06:00:17;;;;;;;6.35;4.60;;;18.20;99.90;;;;;;5000201;28;20436;-94
2022/08/05 06:02:43;;;;;;;7.30;4.07;;;18.30;99.90;;;;;;4999582;28;20045;-93
2022/08/05 06:05:09;;;;;;;6.25;4.03;;;18.30;99.90;;;;;;4999835;28;20053;-92
2022/08/05 06:07:35;;;;;;;5.28;4.03;;;18.20;99.90;;;;;;5014842;28;20052;-89
2022/08/05 06:10:01;;;;;;;10.02;4.15;;;18.40;99.90;;;;;;4998704;28;20041;-95
2022/08/05 06:12:27;;;;;;;5.32;3.90;;;18.50;99.90;;;;;;5015312;28;20057;-92
2022/08/05 06:14:53;;;;;;;5.72;3.80;;;18.80;99.90;;;;;;5023887;28;20052;-91
2022/08/05 06:17:18;;;;;;;7.00;3.70;;;18.90;99.90;;;;;;5012282;28;20076;-92
2022/08/05 06:19:44;;;;;;;6.15;3.70;;;19.20;99.90;;;;;;5029351;28;20068;-93
2022/08/05 06:22:10;;;;;;;6.93;3.63;;;19.30;99.90;;;;;;5005896;28;20394;-92
2022/08/05 06:24:39;;;;;;;6.93;3.60;;;19.50;99.90;;;;;;4999283;28;20041;-91
2022/08/05 06:27:05;;;;;;;5.75;3.30;;;19.50;99.90;;;;;;5001321;28;20045;-93
2022/08/05 06:29:31;;;;;;;4.78;2.95;;;20.50;99.90;;;;;;4999933;28;20406;-92
2022/08/05 06:31:56;;;;;;;3.70;2.67;;;21.40;99.90;;;;;;4998749;28;20489;-93
2022/08/05 06:34:22;;;;;;;3.53;2.55;;;21.80;99.90;;;;;;4999366;28;20050;-95
2022/08/05 06:36:48;;;;;;;4.32;2.67;;;22.10;99.90;;;;;;5015936;28;20334;-92
2022/08/05 06:39:14;;;;;;;4.20;2.33;;;22.00;99.90;;;;;;4999130;28;20049;-92
2022/08/05 06:41:39;;;;;;;3.47;2.65;;;21.80;99.90;;;;;;4998183;28;20497;-91
2022/08/05 06:44:05;;;;;;;4.80;2.28;;;21.90;99.90;;;;;;5014473;28;20042;-93
2022/08/05 06:46:30;;;;;;;3.45;1.60;;;21.90;99.90;;;;;;5001439;28;20523;-91
2022/08/05 06:48:57;;;;;;;2.63;1.75;;;21.40;99.90;;;;;;4981859;28;20398;-93
2022/08/05 06:51:23;;;;;;;2.80;1.60;;;21.30;99.90;;;;;;4981443;28;20427;-92
2022/08/05 06:53:49;;;;;;;3.40;2.05;;;21.30;99.90;;;;;;4981164;28;20071;-95
2022/08/05 06:56:14;;;;;;;3.67;2.00;;;20.90;99.90;;;;;;4998075;28;20125;-93
2022/08/05 06:58:40;;;;;;;3.45;1.80;;;20.60;99.90;;;;;;5011819;28;20045;-93
2022/08/05 07:01:05;;;;;;;2.38;1.90;;;20.70;99.90;;;;;;4985318;28;20116;-93
2022/08/05 07:03:31;;;;;;;2.33;1.70;;;20.40;99.90;;;;;;5001674;28;20088;-93
2022/08/05 07:05:57;;;;;;;2.05;1.70;;;20.30;99.90;;;;;;5013902;28;20049;-92
2022/08/05 07:08:23;;;;;;;3.90;1.70;;;20.30;99.90;;;;;;5031682;28;20052;-93
2022/08/05 07:10:49;;;;;;;3.42;1.80;;;20.30;99.90;;;;;;4999283;28;20140;-93
2022/08/05 07:18:57;;;;;;;4.20;1.85;;;20.50;99.90;;;;;;5034952;28;20073;-93
2022/08/05 07:21:23;;;;;;;3.15;1.58;;;20.80;99.90;;;;;;5031480;28;20084;-92
2022/08/05 07:23:48;;;;;;;3.00;1.80;;;21.40;99.90;;;;;;5030225;28;20072;-93
2022/08/05 07:26:14;;;;;;;3.45;1.58;;;21.60;99.90;;;;;;5018190;28;20057;-91
2022/08/05 07:28:39;;;;;;;2.13;1.30;;;21.80;99.90;;;;;;5033979;28;20056;-83
2022/08/05 07:31:06;;;;;;;4.28;1.55;;;22.10;99.90;;;;;;5015775;28;20118;-83
2022/08/05 07:33:32;;;;;;;2.35;1.30;;;21.90;99.90;;;;;;5029109;28;20045;-82
2022/08/05 07:35:58;;;;;;;2.80;1.48;;;21.80;99.90;;;;;;5032050;28;20401;-83
2022/08/05 07:38:23;;;;;;;3.28;1.52;;;21.50;99.90;;;;;;5031800;28;20049;-82
2022/08/05 07:40:49;;;;;;;4.30;1.40;;;21.20;99.90;;;;;;5031535;28;20049;-83
2022/08/05 07:43:15;;;;;;;2.25;1.30;;;21.20;99.90;;;;;;5031985;28;20041;-82
2022/08/05 07:45:42;;;;;;;2.75;1.20;;;21.00;99.90;;;;;;5031818;28;20495;-82
2022/08/05 07:48:08;;;;;;;3.15;1.52;;;20.90;99.90;;;;;;5014962;28;20053;-82
2022/08/05 07:50:33;;;;;;;1.92;1.10;;;20.90;99.90;;;;;;5031881;28;20052;-82
2022/08/05 07:52:59;;;;;;;3.65;1.23;;;21.00;99.90;;;;;;5014617;28;20048;-82
2022/08/05 07:55:25;;;;;;;4.20;1.15;;;21.00;99.90;;;;;;5014912;28;20049;-82
2022/08/05 07:57:50;;;;;;;3.45;1.20;;;21.10;99.90;;;;;;5031108;28;20107;-83
2022/08/05 08:00:16;;;;;;;1.38;1.23;;;21.10;99.90;;;;;;5031404;28;20057;-82
2022/08/05 08:02:43;;;;;;;3.08;1.20;;;21.20;99.90;;;;;;5031330;28;20482;-82
2022/08/05 08:05:09;;;;;;;1.42;1.17;;;21.20;99.90;;;;;;4998278;28;20058;-83
2022/08/05 08:07:34;;;;;;;2.65;1.15;;;21.30;99.90;;;;;;5031715;28;20045;-82
2022/08/05 08:10:00;;;;;;;1.30;1.20;;;21.80;99.90;;;;;;4989832;28;20070;-83
2022/08/05 08:12:26;;;;;;;2.45;1.33;;;22.40;99.90;;;;;;4989831;28;20083;-83
2022/08/05 08:14:51;;;;;;;2.78;1.00;;;23.00;99.90;;;;;;5025305;28;20114;-87
2022/08/05 08:17:17;;;;;;;1.45;0.80;;;23.20;99.90;;;;;;4974669;28;20523;-83
2022/08/05 08:19:43;;;;;;;1.15;0.90;;;24.40;99.90;;;;;;4990504;28;20051;-83
2022/08/05 08:22:09;;;;;;;3.72;1.40;;;25.20;99.90;;;;;;4977747;28;20076;-81
2022/08/05 08:24:35;;;;;;;1.65;1.38;;;25.60;99.90;;;;;;4992573;28;20490;-82
2022/08/05 08:27:00;;;;;;;1.98;0.93;;;25.80;99.90;;;;;;4977833;28;20110;-83
2022/08/05 08:29:26;;;;;;;2.28;0.90;;;25.70;99.90;;;;;;4987825;28;20052;-83
2022/08/05 08:31:52;;;;;;;1.67;0.90;;;25.20;99.90;;;;;;4991230;28;20537;-85
2022/08/05 08:34:20;;;;;;;1.45;0.90;;;24.70;99.90;;;;;;5008286;28;20129;-84
2022/08/05 08:36:46;;;;;;;2.13;1.00;;;23.90;99.90;;;;;;4996042;28;20060;-84
2022/08/05 08:39:12;;;;;;;2.28;1.10;;;24.00;99.90;;;;;;4982322;28;20046;-83
2022/08/05 08:41:41;;;;;;;2.63;1.00;;;23.10;99.90;;;;;;4996802;28;20046;-84
2022/08/05 08:44:07;;;;;;;1.60;0.80;;;23.00;99.90;;;;;;5014783;28;20107;-82
2022/08/05 08:46:33;;;;;;;3.50;0.95;;;22.70;99.90;;;;;;4998561;28;20058;-85
2022/08/05 08:48:59;;;;;;;2.10;1.08;;;23.00;99.90;;;;;;4998637;28;20056;-82
2022/08/05 08:51:26;;;;;;;2.97;0.60;;;23.90;99.90;;;;;;4998654;28;20046;-84
2022/08/05 08:53:52;;;;;;;2.53;0.90;;;24.10;99.90;;;;;;4998776;28;20061;-84
2022/08/05 08:56:19;;;;;;;1.48;0.95;;;24.10;99.90;;;;;;4998239;28;20041;-84
2022/08/05 08:58:45;;;;;;;3.08;1.05;;;23.80;99.90;;;;;;4998973;28;20045;-84
2022/08/05 09:01:11;;;;;;;2.75;1.10;;;23.30;99.90;;;;;;4997992;28;20135;-84
2022/08/05 09:03:37;;;;;;;2.92;0.90;;;23.30;99.90;;;;;;5002879;28;20529;-84
2022/08/05 09:06:03;;;;;;;2.90;0.90;;;22.90;99.90;;;;;;5013745;28;20163;-82
2022/08/05 09:08:29;;;;;;;1.35;0.90;;;22.90;99.90;;;;;;5014016;28;20076;-82
2022/08/05 09:10:54;;;;;;;4.97;1.13;;;22.90;99.90;;;;;;5008118;28;20049;-86
2022/08/05 09:13:20;;;;;;;1.83;0.80;;;23.00;99.90;;;;;;4994083;28;20406;-82
2022/08/05 09:15:46;;;;;;;1.73;0.80;;;23.10;99.90;;;;;;4988899;28;20041;-85
2022/08/05 09:18:12;;;;;;;1.58;0.80;;;23.60;99.90;;;;;;5022149;28;20128;-86
2022/08/05 09:20:37;;;;;;;0.77;0.77;;;23.60;99.90;;;;;;5013617;28;20136;-84
2022/08/05 09:23:05;;;;;;;2.47;0.90;;;23.50;99.90;;;;;;5024342;28;20041;-86
2022/08/05 09:25:31;;;;;;;1.92;0.88;;;23.90;99.90;;;;;;5008141;28;20060;-91
2022/08/05 09:28:08;;;;;;;0.70;0.57;;;24.00;99.90;;;;;;5013227;28;20133;-89
2022/08/05 09:30:33;;;;;;;1.20;0.60;;;24.50;99.90;;;;;;4999179;28;20084;-92
2022/08/05 09:33:00;;;;;;;2.08;0.88;;;25.10;99.90;;;;;;5014318;28;20077;-88
2022/08/05 09:35:26;;;;;;;2.90;0.77;;;24.00;99.90;;;;;;5008781;28;20033;-85
2022/08/05 09:37:52;;;;;;;1.33;0.80;;;24.00;99.90;;;;;;4990195;28;20053;-90
2022/08/05 09:40:39;;;;;;;1.98;0.93;;;23.50;99.90;;;;;;5012845;28;20481;-87
2022/08/05 09:43:06;;;;;;;1.40;0.70;;;23.40;99.90;;;;;;4994897;28;20041;-90
2022/08/05 09:45:39;;;;;;;1.02;0.70;;;23.30;99.90;;;;;;4979130;28;20706;-93
2022/08/05 09:48:30;;;;;;;2.78;0.80;;;23.40;99.90;;;;;;4977791;28;20053;-87
2022/08/05 09:50:57;;;;;;;1.30;0.93;;;23.20;99.90;;;;;;5014505;28;20037;-88
2022/08/05 09:53:23;;;;;;;1.58;0.80;;;23.20;99.90;;;;;;4996803;28;20763;-90
2022/08/05 09:55:59;;;;;;;2.70;0.70;;;22.80;99.90;;;;;;4998948;28;20073;-90
2022/08/05 09:58:27;;;;;;;2.08;0.55;;;22.60;99.90;;;;;;5011522;28;20049;-87
2022/08/05 10:01:01;;;;;;;2.53;0.70;;;23.00;99.90;;;;;;5017981;28;20053;-91
2022/08/05 10:03:27;;;;;;;2.42;0.80;;;23.60;99.90;;;;;;5030750;28;20520;-94
2022/08/05 10:06:09;;;;;;;1.85;0.70;;;24.40;99.90;;;;;;5015023;28;20053;-87
2022/08/05 10:08:35;;;;;;;1.13;0.68;;;24.50;99.90;;;;;;5013500;28;20034;-87
2022/08/05 10:11:12;;;;;;;4.97;0.85;;;24.50;99.40;;;;;;5013031;28;20084;-88
2022/08/05 10:13:38;;;;;;;1.60;0.60;;;24.50;99.70;;;;;;5017866;28;20049;-95
2022/08/05 10:16:05;;;;;;;2.35;0.70;;;24.20;99.90;;;;;;4997946;28;20084;-91
2022/08/05 10:18:31;;;;;;;1.15;0.70;;;23.80;99.60;;;;;;5016672;28;20045;-93
2022/08/05 10:21:04;;;;;;;2.53;0.70;;;25.20;98.10;;;;;;4992028;28;20125;-89
2022/08/05 10:23:32;;;;;;;1.23;0.70;;;24.90;98.40;;;;;;4990030;28;20432;-95
2022/08/05 10:25:59;;;;;;;1.27;0.60;;;24.60;99.50;;;;;;5007797;28;20060;-86
2022/08/05 10:28:25;;;;;;;1.83;0.80;;;25.00;99.30;;;;;;4987572;28;20089;-85
2022/08/05 10:30:52;;;;;;;1.08;0.60;;;25.90;99.10;;;;;;4980558;28;20041;-92
2022/08/05 10:33:18;;;;;;;2.65;0.80;;;25.80;98.20;;;;;;5015560;28;20034;-92
2022/08/05 10:35:44;;;;;;;1.02;0.68;;;25.80;97.30;;;;;;4993719;28;20436;-89
2022/08/05 10:38:09;;;;;;;1.50;0.60;;;25.80;97.20;;;;;;5012315;28;20045;-88
2022/08/05 10:40:39;;;;;;;1.98;0.70;;;26.10;97.50;;;;;;4989373;28;20064;-93
2022/08/05 10:43:34;;;;;;;1.20;0.60;;;26.00;97.60;;;;;;5008843;28;20049;-94
2022/08/05 10:46:05;;;;;;;1.67;0.60;;;26.00;96.90;;;;;;5013351;28;20049;-91
2022/08/05 10:48:35;;;;;;;2.83;0.85;;;25.20;96.70;;;;;;5014885;28;20727;-94
2022/08/05 10:51:08;;;;;;;2.50;0.63;;;25.50;96.70;;;;;;4999622;28;20049;-88
2022/08/05 10:53:39;;;;;;;1.30;0.57;;;25.40;97.10;;;;;;5014058;28;20161;-91
2022/08/05 10:56:16;;;;;;;0.50;0.50;;;25.60;97.60;;;;;;4997996;28;20049;-88
2022/08/05 10:58:53;;;;;;;2.05;0.57;;;25.80;96.80;;;;;;5029700;28;20355;-91
2022/08/05 11:01:32;;;;;;;2.17;0.60;;;25.90;96.10;;;;;;5029408;28;20050;-89
2022/08/05 11:04:21;;;;;;;1.33;0.63;;;25.80;94.70;;;;;;4994456;28;20054;-92
2022/08/05 11:06:59;;;;;;;1.15;0.50;;;25.60;95.30;;;;;;5016047;28;20512;-87
2022/08/05 11:09:46;;;;;;;1.67;0.47;;;26.10;95.00;;;;;;5028282;28;20053;-88
2022/08/05 11:12:33;;;;;;;1.42;0.40;;;25.60;92.60;;;;;;5012291;28;20047;-87
2022/08/05 11:15:08;;;;;;;1.15;0.45;;;25.40;91.50;;;;;;5028133;28;20057;-89
2022/08/05 11:17:38;;;;;;;0.77;0.43;;;25.40;91.10;;;;;;5011547;28;20160;-87
2022/08/05 11:20:05;;;;;;;1.40;0.50;;;25.40;91.20;;;;;;5002201;28;20053;-90
2022/08/05 11:22:44;;;;;;;0.40;0.30;;;25.10;91.50;;;;;;5006461;28;20061;-83
2022/08/05 11:25:42;;;;;;;0.30;0.30;;;24.80;91.60;;;;;;5020062;28;20057;-87
2022/08/05 11:28:11;;;;;;;0.93;0.38;;;24.30;91.50;;;;;;5020097;28;20056;-90
2022/08/05 11:30:55;;;;;;;0.60;0.30;;;24.40;92.00;;;;;;5021325;28;20041;-91
2022/08/05 11:33:25;;;;;;;2.17;0.50;;;24.40;92.40;;;;;;5027476;28;20041;-89
2022/08/05 11:35:54;;;;;;;1.05;0.20;;;24.60;92.30;;;;;;5029067;28;20087;-90
2022/08/05 11:38:41;;;;;;;0.38;0.35;;;24.60;92.00;;;;;;5013283;28;20053;-85
2022/08/05 11:41:23;;;;;;;0.30;0.28;;;24.40;92.50;;;;;;5030157;28;20080;-89
2022/08/05 11:43:59;;;;;;;4.10;0.40;;;24.40;92.80;;;;;;5013170;28;20049;-84
2022/08/05 11:46:26;;;;;;;0.40;0.30;;;24.10;92.60;;;;;;4996358;28;20180;-89
2022/08/05 11:48:52;;;;;;;1.35;0.35;;;24.20;92.90;;;;;;5012837;28;20097;-88
2022/08/05 11:51:18;;;;;;;2.50;0.70;;;24.10;92.70;;;;;;5012304;28;20045;-87
2022/08/05 11:53:44;;;;;;;4.60;0.50;;;23.90;92.80;;;;;;5012993;28;20065;-87
2022/08/05 11:56:10;;;;;;;5.00;0.50;;;24.00;93.40;;;;;;4996511;28;20046;-87
2022/08/05 11:58:40;;;;;;;4.82;0.70;;;23.60;93.30;;;;;;5013313;28;20532;-87
2022/08/05 12:01:07;;;;;;;5.40;0.55;;;24.10;92.90;;;;;;4997646;28;20063;-88
2022/08/05 12:03:43;;;;;;;3.15;0.30;;;23.90;93.50;;;;;;4996435;28;20131;-86
2022/08/05 12:06:09;;;;;;;2.00;0.60;;;23.80;94.50;;;;;;5030074;28;20053;-87
2022/08/05 12:08:42;;;;;;;1.70;0.60;;;24.10;93.70;;;;;;4997358;28;20041;-86
2022/08/05 12:11:08;;;;;;;3.08;1.23;;;24.10;93.30;;;;;;5014385;28;20045;-86
2022/08/05 12:13:34;;;;;;;2.60;0.52;;;23.90;93.60;;;;;;5016941;28;20103;-88
2022/08/05 12:16:00;;;;;;;3.35;0.60;;;23.70;93.50;;;;;;5016756;28;20446;-86
2022/08/05 12:18:35;;;;;;;4.65;0.63;;;23.90;94.20;;;;;;5032294;28;20099;-89
2022/08/05 12:21:14;;;;;;;1.85;0.52;;;23.90;94.50;;;;;;5016575;28;20115;-85
2022/08/05 12:23:50;;;;;;;2.75;0.60;;;24.00;94.20;;;;;;5016277;28;20723;-89
2022/08/05 12:26:15;;;;;;;1.85;0.40;;;23.90;93.60;;;;;;4999161;28;20045;-88
2022/08/05 12:28:41;;;;;;;2.88;0.60;;;23.90;93.80;;;;;;5031331;28;20052;-87
2022/08/05 12:31:06;;;;;;;2.83;0.63;;;23.50;94.80;;;;;;5032584;28;20081;-89
2022/08/05 12:33:32;;;;;;;7.57;1.40;;;23.70;95.90;;;;;;5015625;28;20045;-89
2022/08/05 12:35:58;;;;;;;0.93;0.43;;;23.70;96.90;;;;;;5016617;28;20038;-86
2022/08/05 12:38:24;;;;;;;1.00;0.47;;;23.50;97.20;;;;;;5016515;28;20096;-89
2022/08/05 12:40:49;;;;;;;2.67;0.50;;;23.60;97.00;;;;;;5016387;28;20064;-87
2022/08/05 12:43:15;;;;;;;2.28;0.70;;;23.70;97.40;;;;;;5000015;28;20049;-87
2022/08/05 12:45:52;;;;;;;1.77;0.60;;;23.30;97.20;;;;;;5014944;28;20042;-87
2022/08/05 12:48:17;;;;;;;3.72;1.35;;;22.60;97.70;;;;;;5008268;28;20053;-87
2022/08/05 12:50:43;;;;;;;2.15;0.60;;;22.30;98.60;;;;;;5015253;28;20056;-87
2022/08/05 12:53:14;;;;;;;3.20;0.60;;;22.40;98.80;;;;;;5013496;28;20099;-89
2022/08/05 12:55:41;;;;;;;3.40;0.70;;;22.60;98.60;;;;;;5001629;28;20069;-87